• Join FlightAware (Why Join?)
  • Login
  • US Flag 
01:25AM EST


 

Airport Tracker/Info


-or-


 

Live Flight TrackerFlight Track Log ✈ RPA3228 ✈ 21-May-2013 ✈ KDSM - KDCA

Flight Track Log - Related Links

Times and Time Zones

All times are in EDT time to prevent confusion due to time zone crossing. See the RPA3228 flight status page for this flight to view local times or setup timezone preferences in your user account.

Time Position Orientation Groundspeed Altitude Reporting Facility
EDT Latitude Longitude Course Direction KTS MPH feet Rate Location/Type
07:38AM 41.5231 -93.6794 86° East 140 161 2,000  Level Minneapolis Center
07:38AM 41.5114 -93.6944 224° Southwest 147 169 2,500 1,440 Climbing Minneapolis Center
07:39AM 41.4636 -93.6989 184° South 230 265 4,100 1,980 Climbing Minneapolis Center
07:40AM 41.4428 -93.3223 82° East  Level FlightAware Approximate
07:40AM 41.4519 -93.6453 106° East 276 318 5,800  Level Minneapolis Center
07:41AM 41.4501 -93.1727 90° East  Level FlightAware Approximate
07:41AM 41.4583 -93.5306 86° East 294 338 8,200  Level Minneapolis Center
07:42AM 41.4500 -93.0224 90° East  Level FlightAware Approximate
07:42AM 41.4625 -93.4158 87° East 309 356 10,700  Level Minneapolis Center
07:43AM 41.4570 -92.8724 86° East  Level FlightAware Approximate
07:43AM 41.4672 -93.2925 87° East 334 384 12,100  Level Minneapolis Center
07:44AM 41.4719 -93.1619 87° East 352 405 14,300 1,920 Climbing Minneapolis Center
07:45AM 41.4764 -93.0286 87° East 361 415 16,100 1,680 Climbing Minneapolis Center
07:46AM 41.4817 -92.8753 87° East 384 442 17,800 1,680 Climbing Minneapolis Center
07:47AM 41.4853 -92.7450 88° East 384 442 19,600 1,620 Climbing Minneapolis Center
07:48AM 41.4903 -92.6006 87° East 386 444 21,100 1,380 Climbing Minneapolis Center
07:49AM 41.4947 -92.4558 88° East 391 450 22,500 1,260 Climbing Minneapolis Center
07:50AM 41.4992 -92.2836 88° East 406 467 23,900 1,140 Climbing Chicago Center
07:51AM 41.5003 -92.1331 89° East 411 473 25,000 1,500 Climbing Chicago Center
07:52AM 41.4928 -91.9431 93° East 430 495 27,000 1,560 Climbing Chicago Center
07:53AM 41.4856 -91.7867 93° East 429 494 28,300 1,320 Climbing Chicago Center
07:54AM 41.4794 -91.6258 93° East 437 503 29,800 1,260 Climbing Chicago Center
07:55AM 41.4733 -91.4686 93° East 434 499 31,000 540 Climbing Chicago Center
07:56AM 41.4661 -91.3036 93° East 421 484 31,000  Level Chicago Center
07:57AM 41.4589 -91.1475 93° East 421 484 31,000  Level Chicago Center
07:58AM 41.4517 -90.9914 93° East 422 486 31,000  Level Chicago Center
07:59AM 41.4444 -90.8367 94° East 419 482 31,000  Level Chicago Center
08:00AM 41.4342 -90.6481 94° East 424 488 31,000  Level Chicago Center
08:01AM 41.4278 -90.4917 93° East 423 487 31,000  Level Chicago Center
08:02AM 41.4192 -90.3369 94° East 421 484 31,000  Level Chicago Center
08:04AM 41.4114 -90.1819 94° East 419 482 31,000  Level Chicago Center
08:05AM 41.4028 -90.0275 94° East 418 481 31,000  Level Chicago Center
08:06AM 41.3939 -89.8728 94° East 417 480 31,000  Level Chicago Center
08:07AM 41.3853 -89.7181 94° East 418 481 31,000  Level Chicago Center
08:08AM 41.3764 -89.5650 94° East 412 474 31,000  Level Chicago Center
08:09AM 41.3672 -89.4100 94° East 417 480 31,000  Level Chicago Center
08:10AM 41.3567 -89.2256 94° East 414 476 31,000  Level Chicago Center
08:11AM 41.3456 -89.0842 96° East 419 482 31,000  Level Chicago Center
08:12AM 41.3364 -88.9342 95° East 413 475 31,000  Level Chicago Center
08:13AM 41.3244 -88.7522 95° East 413 475 31,000  Level Chicago Center
08:14AM 41.3142 -88.6000 95° East 416 479 31,000  Level Chicago Center
08:15AM 41.3042 -88.4472 95° East 418 481 31,000  Level Chicago Center
08:16AM 41.2939 -88.2944 95° East 421 484 31,000  Level Chicago Center
08:17AM 41.2831 -88.1450 95° East 419 482 31,000  Level Chicago Center
08:18AM 41.2692 -87.9653 96° East 419 482 31,000  Level Chicago Center
08:19AM 41.2589 -87.8147 95° East 418 481 31,000  Level Chicago Center
08:20AM 41.2475 -87.6650 96° East 412 474 31,000  Level Chicago Center
08:21AM 41.2367 -87.5156 95° East 410 472 31,000  Level Chicago Center
08:22AM 41.2225 -87.3356 96° East 412 474 31,000  Level Chicago Center
08:23AM 41.2100 -87.1864 96° East 409 471 31,000  Level Chicago Center
08:24AM 41.1975 -87.0375 96° East 409 471 31,000  Level Chicago Center
08:25AM 41.1858 -86.8886 96° East 410 472 31,000  Level Chicago Center
08:26AM 41.1739 -86.7381 96° East 413 475 31,000  Level Chicago Center
08:27AM 41.1550 -86.5644 98° East 412 474 31,000  Level Chicago Center
08:28AM 41.1222 -86.4222 107° East 408 470 31,000  Level Chicago Center
08:29AM 41.0889 -86.2817 107° East 404 465 31,000  Level Chicago Center
08:30AM 41.0550 -86.1403 108° East 406 467 31,000  Level Chicago Center
08:31AM 41.0219 -85.9983 107° East 407 468 31,000  Level Chicago Center
08:32AM 40.9875 -85.8564 108° East 409 471 31,000  Level Chicago Center
08:33AM 40.9469 -85.6858 107° East 409 471 31,000  Level Chicago Center
08:34AM 40.9117 -85.5439 108° East 410 472 31,000  Level Chicago Center
08:35AM 40.8772 -85.4006 108° East 412 474 31,000  Level Chicago Center
08:37AM 40.8422 -85.2561 108° East 416 479 31,000  Level Chicago Center
08:38AM 40.8061 -85.1133 108° East 415 478 31,000  Level Chicago Center
08:39AM 40.7653 -84.9433 108° East 410 472 31,000  Level Chicago Center
08:40AM 40.7294 -84.8031 109° East 409 471 31,000  Level Chicago Center
08:41AM 40.6933 -84.6622 109° East 408 470 31,000  Level Chicago Center
08:41AM 40.6803 -84.6017 106° East 404 465 31,000  Level Indianapolis Center
08:42AM 40.6450 -84.4575 108° East 409 471 31,000  Level Indianapolis Center
08:43AM 40.6092 -84.3156 108° East 407 468 31,000  Level Indianapolis Center
08:44AM 40.5719 -84.1742 109° East 406 467 31,000  Level Indianapolis Center
08:45AM 40.5364 -84.0328 108° East 403 464 31,000  Level Indianapolis Center
08:46AM 40.4983 -83.8911 109° East 407 468 31,000  Level Indianapolis Center
08:47AM 40.4569 -83.7292 109° East 398 458 31,000  Level Indianapolis Center
08:48AM 40.4208 -83.5900 109° East 397 457 31,000  Level Indianapolis Center
08:49AM 40.3831 -83.4511 110° East 397 457 31,000  Level Indianapolis Center
08:50AM 40.3467 -83.3122 109° East 398 458 31,000  Level Indianapolis Center
08:51AM 40.3092 -83.1731 109° East 401 461 31,000  Level Indianapolis Center
08:52AM 40.2728 -83.0361 109° East 394 453 31,000  Level Indianapolis Center
08:53AM 40.2339 -82.8964 110° East 401 461 31,000  Level Indianapolis Center
08:54AM 40.1969 -82.7564 109° East 402 463 31,000  Level Indianapolis Center
08:55AM 40.1600 -82.6189 109° East 398 458 31,000  Level Indianapolis Center
08:56AM 40.1194 -82.4811 111° Southeast 401 461 31,000  Level Indianapolis Center
08:57AM 40.0786 -82.3433 111° Southeast 402 463 31,000  Level Indianapolis Center
08:59AM 40.0372 -82.2061 111° Southeast 403 464 31,000  Level Indianapolis Center
09:00AM 39.9964 -82.0703 111° Southeast 401 461 31,000  Level Indianapolis Center
09:01AM 39.9506 -81.9150 111° Southeast 391 450 31,000  Level Indianapolis Center
09:02AM 39.9103 -81.7839 112° Southeast 389 448 31,000  Level Indianapolis Center
09:03AM 39.8697 -81.6522 112° Southeast 389 448 31,000  Level Indianapolis Center
09:04AM 39.8303 -81.5206 111° Southeast 388 447 31,000  Level Indianapolis Center
09:05AM 39.7925 -81.3997 112° Southeast 392 451 31,000  Level Indianapolis Center
09:06AM 39.7525 -81.2678 111° Southeast 392 451 31,000  Level Indianapolis Center
09:07AM 39.7097 -81.1342 113° Southeast 397 457 31,000  Level Indianapolis Center
09:08AM 39.6597 -80.9717 112° Southeast 402 463 31,000  Level Indianapolis Center
09:09AM 39.6175 -80.8261 111° Southeast 426 490 31,000  Level Indianapolis Center
09:10AM 39.5825 -80.6675 106° East 453 521 31,000  Level Indianapolis Center
09:11AM 39.5478 -80.5147 106° East 442 509 31,000  Level Indianapolis Center
09:12AM 39.5125 -80.3619 107° East 441 507 31,000  Level Indianapolis Center
09:13AM 39.4767 -80.2106 107° East 440 506 31,000  Level Indianapolis Center
09:14AM 39.4544 -80.0939 104° East 454 522 31,000  Level Washington Center
09:15AM 39.4183 -79.9439 107° East 443 510 31,000  Level Washington Center
09:16AM 39.3842 -79.7914 106° East 443 510 31,000  Level Washington Center
09:17AM 39.3475 -79.6469 108° East 448 516 31,000  Level Washington Center
09:18AM 39.3128 -79.4975 107° East 437 503 31,000 -600 Level Washington Center
09:19AM 39.2778 -79.3508 107° East 432 497 29,800 -1,740 Descending Washington Center
09:20AM 39.2433 -79.1856 105° East 432 497 27,600 -1,740 Descending Washington Center
09:21AM 39.2292 -79.0294 97° East 427 491 26,400 -1,440 Descending Washington Center
09:22AM 39.2167 -78.8786 96° East 427 491 24,800 -1,920 Descending Washington Center
09:23AM 39.1997 -78.7281 98° East 427 491 22,500 -2,220 Descending Washington Center
09:24AM 39.1867 -78.5881 97° East 414 476 20,400 -2,100 Descending Washington Center
09:25AM 39.1733 -78.4536 97° East 390 449 18,400 -1,920 Descending Washington Center
09:26AM 39.1533 -78.3244 101° East 377 434 16,700 -1,380 Descending Washington Center
09:27AM 39.1228 -78.2028 108° East 363 418 15,700 -960 Descending Washington Center
09:28AM 39.0919 -78.0814 108° East 357 411 14,800 -1,020 Descending Washington Center
09:29AM 39.0628 -77.9708 109° East 344 396 13,700 -1,020 Descending Washington Center
09:30AM 39.0378 -77.8658 107° East 323 372 12,800 -1,320 Descending Washington Center
09:31AM 39.0125 -77.7689 109° East 312 359 11,100 -1,140 Descending Washington Center
09:32AM 38.9872 -77.6694 108° East 285 328 10,500 -960 Descending Washington Center
09:32AM 38.9667 -77.6167 117° Southeast 265 305 9,600 -1,380 Descending Potomac TRACON
09:33AM 38.9500 -77.5167 102° East 258 297 8,300 -900 Descending Potomac TRACON
09:34AM 38.9333 -77.4500 108° East 209 241 7,900 -840 Descending Potomac TRACON
09:35AM 38.9167 -77.3833 108° East 196 226 6,700 -960 Descending Potomac TRACON
09:36AM 38.9500 -77.3333 49° Northeast 201 231 6,000 -480 Descending Potomac TRACON
09:37AM 39.0000 -77.3333 360° North 183 211 5,900 -600 Descending Potomac TRACON
09:38AM 39.0333 -77.3167 21° North 186 214 5,000 -540 Descending Potomac TRACON
09:39AM 39.0500 -77.2667 67° East 197 227 4,900 -600 Descending Potomac TRACON
09:40AM 39.0167 -77.2167 131° Southeast 167 192 3,800 -1,020 Descending Potomac TRACON
09:41AM 39.0000 -77.1833 123° Southeast 165 190 3,000 -540 Descending Potomac TRACON
09:42AM 38.9667 -77.1500 142° Southeast 164 189 2,900 -540 Descending Potomac TRACON
09:43AM 38.9333 -77.1000 131° Southeast 161 185 2,000 -900 Descending Potomac TRACON